createdAt,value
2019-02-10T00:00:25.782Z,311.72
2019-02-10T00:01:25.703Z,311.80
2019-02-10T00:02:25.633Z,311.96
2019-02-10T00:03:25.627Z,311.76
2019-02-10T00:04:25.661Z,311.96
2019-02-10T00:05:25.727Z,311.76
2019-02-10T00:06:25.593Z,311.89
2019-02-10T00:07:25.573Z,312.22
2019-02-10T00:08:25.568Z,311.70
2019-02-10T00:09:25.566Z,312.01
2019-02-10T00:10:25.591Z,311.80
2019-02-10T00:11:25.539Z,311.90
2019-02-10T00:12:25.523Z,311.93
2019-02-10T00:13:25.519Z,311.98
2019-02-10T00:14:25.520Z,311.81
2019-02-10T00:15:25.501Z,311.83
2019-02-10T00:16:25.505Z,312.22
2019-02-10T00:17:25.480Z,311.79
2019-02-10T00:18:25.461Z,311.72
2019-02-10T00:19:25.471Z,311.78
2019-02-10T00:20:25.428Z,311.99
2019-02-10T00:21:25.488Z,312.45
2019-02-10T00:22:25.418Z,312.11
2019-02-10T00:23:25.418Z,312.41
2019-02-10T00:24:25.407Z,312.46
2019-02-10T00:25:25.409Z,311.73
2019-02-10T00:26:25.390Z,312.11
2019-02-10T00:27:25.469Z,312.06
2019-02-10T00:28:25.359Z,311.87
2019-02-10T00:29:25.354Z,312.08
2019-02-10T00:30:25.357Z,311.76
2019-02-10T00:31:25.331Z,312.06
2019-02-10T00:32:25.305Z,311.84
2019-02-10T00:33:25.314Z,311.81
2019-02-10T00:34:25.310Z,311.99
2019-02-10T00:35:25.285Z,311.72
2019-02-10T00:36:32.646Z,312.15
2019-02-10T00:37:26.282Z,311.98
2019-02-10T00:38:25.241Z,311.67
2019-02-10T00:39:25.232Z,312.02
2019-02-10T00:40:25.249Z,312.37
2019-02-10T00:41:25.204Z,312.23
2019-02-10T00:42:25.197Z,312.38
2019-02-10T00:43:25.188Z,312.45
2019-02-10T00:44:25.192Z,312.33
2019-02-10T00:45:25.235Z,311.95
2019-02-10T00:46:25.186Z,312.48
2019-02-10T00:47:25.148Z,312.29
2019-02-10T00:48:25.139Z,312.37
2019-02-10T00:49:25.126Z,312.47
2019-02-10T00:50:25.109Z,312.38
2019-02-10T00:51:25.123Z,312.38
2019-02-10T00:52:25.090Z,312.35
2019-02-10T00:53:25.073Z,312.11
2019-02-10T00:54:25.078Z,312.92
2019-02-10T00:55:25.067Z,312.52
2019-02-10T00:56:25.066Z,311.89
2019-02-10T00:57:25.060Z,312.19
2019-02-10T00:58:25.013Z,312.40
2019-02-10T00:59:25.007Z,311.98
2019-02-10T01:00:25.005Z,311.58
2019-02-10T01:01:25.785Z,312.35
2019-02-10T01:02:25.000Z,311.89
2019-02-10T01:03:24.970Z,312.50
2019-02-10T01:04:24.976Z,312.40
2019-02-10T01:05:24.945Z,312.44
2019-02-10T01:06:24.948Z,312.27
2019-02-10T01:07:24.931Z,312.02
2019-02-10T01:08:24.939Z,311.98
2019-02-10T01:09:24.911Z,312.26
2019-02-10T01:10:24.897Z,312.13
2019-02-10T01:11:24.875Z,312.28
2019-02-10T01:12:24.865Z,312.00
2019-02-10T01:13:24.891Z,311.86
2019-02-10T01:14:24.844Z,312.10
2019-02-10T01:15:24.851Z,312.36
2019-02-10T01:16:24.816Z,312.07
2019-02-10T01:17:24.809Z,311.95
2019-02-10T01:18:24.828Z,311.89
2019-02-10T01:19:24.815Z,311.81
2019-02-10T01:20:24.787Z,311.80
2019-02-10T01:21:24.786Z,311.86
2019-02-10T01:22:24.758Z,311.77
2019-02-10T01:23:24.759Z,311.60
2019-02-10T01:24:24.773Z,311.51
2019-02-10T01:25:24.723Z,311.56
2019-02-10T01:26:24.730Z,311.25
2019-02-10T01:27:24.725Z,311.56
2019-02-10T01:28:24.720Z,312.15
2019-02-10T01:29:24.707Z,312.12
2019-02-10T01:30:24.674Z,311.62
2019-02-10T01:31:24.663Z,311.90
2019-02-10T01:32:24.659Z,311.74
2019-02-10T01:33:24.644Z,311.41
2019-02-10T01:34:24.671Z,311.31
2019-02-10T01:35:24.639Z,312.13
2019-02-10T01:36:24.611Z,311.71
2019-02-10T01:37:24.594Z,311.63
2019-02-10T01:38:24.610Z,311.84
2019-02-10T01:39:24.627Z,311.95
2019-02-10T01:40:24.565Z,311.73
2019-02-10T01:41:24.551Z,311.82
2019-02-10T01:42:24.544Z,311.75
2019-02-10T01:43:24.623Z,312.15
2019-02-10T01:44:24.520Z,312.02
2019-02-10T01:45:24.540Z,312.22
2019-02-10T01:46:24.516Z,311.92
2019-02-10T01:47:24.522Z,312.24
2019-02-10T01:48:24.484Z,311.93
2019-02-10T01:49:24.462Z,311.69
2019-02-10T01:50:24.474Z,312.28
2019-02-10T01:51:24.472Z,312.35
2019-02-10T01:52:24.450Z,312.03
2019-02-10T01:53:24.427Z,312.46
2019-02-10T01:54:24.427Z,312.57
2019-02-10T01:55:24.415Z,312.22
2019-02-10T01:56:24.424Z,312.80
2019-02-10T01:57:24.369Z,312.32
2019-02-10T01:58:24.372Z,312.42
2019-02-10T01:59:24.359Z,312.01
2019-02-10T02:00:24.357Z,312.35
2019-02-10T02:01:24.344Z,312.40
2019-02-10T02:02:24.347Z,311.97
2019-02-10T02:03:24.316Z,312.38
2019-02-10T02:04:24.309Z,312.30
2019-02-10T02:05:24.299Z,312.56
2019-02-10T02:06:24.280Z,312.44
2019-02-10T02:07:24.310Z,312.23
2019-02-10T02:08:24.250Z,312.50
2019-02-10T02:09:24.238Z,312.48
2019-02-10T02:10:24.239Z,312.33
2019-02-10T02:11:24.239Z,312.53
2019-02-10T02:12:24.216Z,312.18
2019-02-10T02:13:24.230Z,312.92
2019-02-10T02:14:24.190Z,312.54
2019-02-10T02:15:24.193Z,312.36
2019-02-10T02:16:24.166Z,312.91
2019-02-10T02:17:24.158Z,312.48
2019-02-10T02:18:24.250Z,312.64
2019-02-10T02:19:24.136Z,312.50
2019-02-10T02:20:24.123Z,312.74
2019-02-10T02:21:24.106Z,312.66
2019-02-10T02:22:24.138Z,312.93
2019-02-10T02:23:24.114Z,312.55
2019-02-10T02:24:24.203Z,313.16
2019-02-10T02:25:24.142Z,313.25
2019-02-10T02:26:24.099Z,313.33
2019-02-10T02:27:24.062Z,312.85
2019-02-10T02:28:24.368Z,312.84
2019-02-10T02:29:25.171Z,312.92
2019-02-10T02:30:24.064Z,312.63
2019-02-10T02:31:24.094Z,312.83
2019-02-10T02:32:24.009Z,312.62
2019-02-10T02:33:23.998Z,312.39
2019-02-10T02:34:23.970Z,312.62
2019-02-10T02:35:23.982Z,312.42
2019-02-10T02:36:23.997Z,312.86
2019-02-10T02:37:24.015Z,312.65
2019-02-10T02:38:23.931Z,312.89
2019-02-10T02:39:23.921Z,312.46
2019-02-10T02:40:23.904Z,312.89
2019-02-10T02:41:23.896Z,312.56
2019-02-10T02:42:23.911Z,312.77
2019-02-10T02:43:23.883Z,312.86
2019-02-10T02:44:23.880Z,312.54
2019-02-10T02:45:23.856Z,313.28
2019-02-10T02:46:23.857Z,312.43
2019-02-10T02:47:23.834Z,312.50
2019-02-10T02:48:23.831Z,313.07
2019-02-10T02:49:23.811Z,312.74
2019-02-10T02:50:23.802Z,312.61
2019-02-10T02:51:23.815Z,312.17
2019-02-10T02:52:23.772Z,312.48
2019-02-10T02:53:23.772Z,312.63
2019-02-10T02:54:23.762Z,312.53
2019-02-10T02:55:23.752Z,312.72
2019-02-10T02:56:23.760Z,313.18
2019-02-10T02:57:23.740Z,312.51
2019-02-10T02:58:23.710Z,312.54
2019-02-10T02:59:23.696Z,312.74
2019-02-10T03:00:23.686Z,312.52
2019-02-10T03:01:23.675Z,312.56
2019-02-10T03:02:23.699Z,312.65
2019-02-10T03:03:23.678Z,312.30
2019-02-10T03:04:23.649Z,312.35
2019-02-10T03:05:23.663Z,312.27
2019-02-10T03:06:23.627Z,312.59
2019-02-10T03:07:23.614Z,312.57
2019-02-10T03:08:23.609Z,312.65
2019-02-10T03:09:23.607Z,312.36
2019-02-10T03:10:23.587Z,312.53
2019-02-10T03:11:23.589Z,312.45
2019-02-10T03:12:23.556Z,312.42
2019-02-10T03:13:23.538Z,312.49
2019-02-10T03:14:23.537Z,312.31
2019-02-10T03:15:23.544Z,312.64
2019-02-10T03:16:23.551Z,312.40
2019-02-10T03:17:23.507Z,312.48
2019-02-10T03:18:23.494Z,312.35
2019-02-10T03:19:23.479Z,312.53
2019-02-10T03:20:23.477Z,312.56
2019-02-10T03:21:23.456Z,312.33
2019-02-10T03:22:23.472Z,313.11
2019-02-10T03:23:23.465Z,312.01
2019-02-10T03:24:23.429Z,312.63
2019-02-10T03:25:23.416Z,312.05
2019-02-10T03:26:23.443Z,312.24
2019-02-10T03:27:23.402Z,312.50
2019-02-10T03:28:23.393Z,312.42
2019-02-10T03:29:23.381Z,312.29
2019-02-10T03:30:23.366Z,312.48
2019-02-10T03:31:23.348Z,312.54
2019-02-10T03:32:23.358Z,311.89
2019-02-10T03:33:23.328Z,312.21
2019-02-10T03:34:23.335Z,312.01
2019-02-10T03:35:23.312Z,312.20
2019-02-10T03:36:23.315Z,312.45
2019-02-10T03:37:27.269Z,312.45
2019-02-10T03:38:23.284Z,312.00
2019-02-10T03:39:23.279Z,312.13
2019-02-10T03:40:23.262Z,312.08
2019-02-10T03:41:23.246Z,311.93
2019-02-10T03:42:23.234Z,312.30
2019-02-10T03:43:23.249Z,312.13
2019-02-10T03:44:23.202Z,312.39
2019-02-10T03:45:23.203Z,312.11
2019-02-10T03:46:23.211Z,312.06
2019-02-10T03:47:23.187Z,311.94
2019-02-10T03:48:23.198Z,312.29
2019-02-10T03:49:23.168Z,312.34
2019-02-10T03:50:23.141Z,312.27
2019-02-10T03:51:23.135Z,312.34
2019-02-10T03:52:23.117Z,312.45
2019-02-10T03:53:23.142Z,312.00
2019-02-10T03:54:23.110Z,312.45
2019-02-10T03:55:23.096Z,312.15
2019-02-10T03:56:23.074Z,312.25
2019-02-10T03:57:23.076Z,312.26
2019-02-10T03:58:23.089Z,311.96
2019-02-10T03:59:23.075Z,312.10
2019-02-10T04:00:23.041Z,311.79
2019-02-10T04:01:23.043Z,312.38
2019-02-10T04:02:23.012Z,312.57
2019-02-10T04:03:23.023Z,312.09
2019-02-10T04:04:23.026Z,312.55
2019-02-10T04:05:22.988Z,312.38
2019-02-10T04:06:22.980Z,311.69
2019-02-10T04:07:22.969Z,312.02
2019-02-10T04:08:22.982Z,311.79
2019-02-10T04:09:22.979Z,311.98
2019-02-10T04:10:22.922Z,312.14
2019-02-10T04:11:22.941Z,312.21
2019-02-10T04:12:22.907Z,312.16
2019-02-10T04:13:22.894Z,312.06
2019-02-10T04:14:22.893Z,312.36
2019-02-10T04:15:22.910Z,312.38
2019-02-10T04:16:22.873Z,312.23
2019-02-10T04:17:22.870Z,311.88
2019-02-10T04:18:22.858Z,312.67
2019-02-10T04:19:22.832Z,312.27
2019-02-10T04:20:22.826Z,312.15
2019-02-10T04:21:22.815Z,312.43
2019-02-10T04:22:22.816Z,312.37
2019-02-10T04:23:22.793Z,312.62
2019-02-10T04:24:22.775Z,312.60
2019-02-10T04:25:22.760Z,312.20
2019-02-10T04:26:22.775Z,312.33
2019-02-10T04:27:22.749Z,312.36
2019-02-10T04:28:22.740Z,312.56
2019-02-10T04:29:22.714Z,312.21
2019-02-10T04:30:22.724Z,312.05
2019-02-10T04:31:22.734Z,312.10
2019-02-10T04:32:22.697Z,312.39
2019-02-10T04:33:22.692Z,312.32
2019-02-10T04:34:22.656Z,312.11
2019-02-10T04:35:22.651Z,312.62
2019-02-10T04:36:22.633Z,312.16
2019-02-10T04:37:22.642Z,312.92
2019-02-10T04:38:22.635Z,312.11
2019-02-10T04:39:22.613Z,312.39
2019-02-10T04:40:22.603Z,312.80
2019-02-10T04:41:22.599Z,312.65
2019-02-10T04:42:22.600Z,312.31
2019-02-10T04:43:22.574Z,312.28
2019-02-10T04:44:22.575Z,312.48
2019-02-10T04:45:22.548Z,312.54
2019-02-10T04:46:22.530Z,312.63
2019-02-10T04:47:22.539Z,312.53
2019-02-10T04:48:22.540Z,312.46
2019-02-10T04:49:22.504Z,312.50
2019-02-10T04:50:22.492Z,312.60
2019-02-10T04:51:22.486Z,312.29
2019-02-10T04:52:22.471Z,312.38
2019-02-10T04:53:22.472Z,312.51
2019-02-10T04:54:22.482Z,312.68
2019-02-10T04:55:22.434Z,312.30
2019-02-10T04:56:22.418Z,312.04
2019-02-10T04:57:22.416Z,312.20
2019-02-10T04:58:22.407Z,311.94
2019-02-10T04:59:22.399Z,312.26
2019-02-10T05:00:22.396Z,312.12
2019-02-10T05:01:22.377Z,312.40
2019-02-10T05:02:22.366Z,312.04
2019-02-10T05:03:22.351Z,312.37
2019-02-10T05:04:22.365Z,311.98
2019-02-10T05:05:22.442Z,312.65
2019-02-10T05:06:22.339Z,312.48
2019-02-10T05:07:22.303Z,312.38
2019-02-10T05:08:22.286Z,312.39
2019-02-10T05:09:22.310Z,312.39
2019-02-10T05:10:22.282Z,312.35
2019-02-10T05:11:22.286Z,311.90
2019-02-10T05:12:22.265Z,312.78
2019-02-10T05:13:22.242Z,312.61
2019-02-10T05:14:22.229Z,312.72
2019-02-10T05:15:22.209Z,312.95
2019-02-10T05:16:22.249Z,312.19
2019-02-10T05:17:22.213Z,312.23
2019-02-10T05:18:22.185Z,312.69
2019-02-10T05:19:22.188Z,312.54
2019-02-10T05:20:22.175Z,312.51
2019-02-10T05:21:22.148Z,312.44
2019-02-10T05:22:22.172Z,312.33
2019-02-10T05:23:22.138Z,312.48
2019-02-10T05:24:22.134Z,312.92
2019-02-10T05:25:22.120Z,312.14
2019-02-10T05:26:22.097Z,312.25
2019-02-10T05:27:22.107Z,311.93
2019-02-10T05:28:22.079Z,312.70
2019-02-10T05:29:22.067Z,312.59
2019-02-10T05:30:22.066Z,312.84
2019-02-10T05:31:22.046Z,312.75
2019-02-10T05:32:22.063Z,312.57
2019-02-10T05:33:22.023Z,312.25
2019-02-10T05:34:22.018Z,312.41
2019-02-10T05:35:22.011Z,312.51
2019-02-10T05:36:21.990Z,312.26
2019-02-10T05:37:21.987Z,312.36
2019-02-10T05:38:21.995Z,312.37
2019-02-10T05:39:21.959Z,312.90
2019-02-10T05:40:21.941Z,312.79
2019-02-10T05:41:21.951Z,312.18
2019-02-10T05:42:21.924Z,312.67
2019-02-10T05:43:21.950Z,312.32
2019-02-10T05:44:21.906Z,312.45
2019-02-10T05:45:21.946Z,312.54
2019-02-10T05:46:21.874Z,312.17
2019-02-10T05:47:21.878Z,312.48
2019-02-10T05:48:21.872Z,311.95
2019-02-10T05:49:21.883Z,312.55
2019-02-10T05:50:21.836Z,312.29
2019-02-10T05:51:21.822Z,312.36
2019-02-10T05:52:21.816Z,312.37
2019-02-10T05:53:21.798Z,312.48
2019-02-10T05:54:21.799Z,312.03
2019-02-10T05:55:21.818Z,312.86
2019-02-10T05:56:21.777Z,312.36
2019-02-10T05:57:21.768Z,312.50
2019-02-10T05:58:21.743Z,312.49
2019-02-10T05:59:21.733Z,312.07
2019-02-10T06:00:21.745Z,312.73
2019-02-10T06:01:21.735Z,312.45
2019-02-10T06:02:21.712Z,312.02
2019-02-10T06:03:21.708Z,312.26
2019-02-10T06:04:21.688Z,312.31
2019-02-10T06:05:21.698Z,312.13
2019-02-10T06:06:21.692Z,311.95
2019-02-10T06:07:21.657Z,312.19
2019-02-10T06:08:21.656Z,312.59
2019-02-10T06:09:21.648Z,312.17
2019-02-10T06:10:21.617Z,312.34
2019-02-10T06:11:21.629Z,312.32
2019-02-10T06:12:21.597Z,312.69
2019-02-10T06:13:21.581Z,312.29
2019-02-10T06:14:21.589Z,312.63
2019-02-10T06:15:21.567Z,312.46
2019-02-10T06:16:21.577Z,312.18
2019-02-10T06:17:21.577Z,312.33
2019-02-10T06:18:21.524Z,312.16
2019-02-10T06:19:21.515Z,312.70
2019-02-10T06:20:21.522Z,311.90
2019-02-10T06:21:21.504Z,312.38
2019-02-10T06:22:21.495Z,312.24
2019-02-10T06:23:21.506Z,312.44
2019-02-10T06:24:21.475Z,312.56
2019-02-10T06:25:21.484Z,313.02
2019-02-10T06:26:21.462Z,312.40
2019-02-10T06:27:21.439Z,312.16
2019-02-10T06:28:21.429Z,312.12
2019-02-10T06:29:21.445Z,312.04
2019-02-10T06:30:21.398Z,312.72
2019-02-10T06:31:21.389Z,312.30
2019-02-10T06:32:21.370Z,312.34
2019-02-10T06:33:21.382Z,312.39
2019-02-10T06:34:21.356Z,312.28
2019-02-10T06:35:21.375Z,312.26
2019-02-10T06:36:21.330Z,312.18
2019-02-10T06:37:21.319Z,312.34
2019-02-10T06:38:22.739Z,311.89
2019-02-10T06:39:21.308Z,311.97
2019-02-10T06:40:21.318Z,311.92
2019-02-10T06:41:21.287Z,312.11
2019-02-10T06:42:21.264Z,311.81
2019-02-10T06:43:21.265Z,312.01
2019-02-10T06:44:21.246Z,311.85
2019-02-10T06:45:21.257Z,312.09
2019-02-10T06:46:21.238Z,311.57
2019-02-10T06:47:21.238Z,311.89
2019-02-10T06:48:21.206Z,312.28
2019-02-10T06:49:21.207Z,312.04
2019-02-10T06:50:21.196Z,312.26
2019-02-10T06:51:21.205Z,312.21
2019-02-10T06:52:21.162Z,312.05
2019-02-10T06:53:21.158Z,312.16
2019-02-10T06:54:21.135Z,312.60
2019-02-10T06:55:21.119Z,312.63
2019-02-10T06:56:21.139Z,312.13
2019-02-10T06:57:21.113Z,311.90
2019-02-10T06:58:21.107Z,312.28
2019-02-10T06:59:21.096Z,311.84
2019-02-10T07:00:21.095Z,311.98
2019-02-10T07:01:21.095Z,312.13
2019-02-10T07:02:21.047Z,312.25
2019-02-10T07:03:21.045Z,312.22
2019-02-10T07:04:21.026Z,311.96
2019-02-10T07:05:21.014Z,312.18
2019-02-10T07:06:21.045Z,312.02
2019-02-10T07:07:21.002Z,311.87
2019-02-10T07:08:20.984Z,311.93
2019-02-10T07:09:20.967Z,312.11
2019-02-10T07:10:20.988Z,311.66
2019-02-10T07:11:20.962Z,312.41
2019-02-10T07:12:20.967Z,312.10
2019-02-10T07:13:20.929Z,312.01
2019-02-10T07:14:20.910Z,312.29
2019-02-10T07:15:20.954Z,312.61
2019-02-10T07:16:20.895Z,312.03
2019-02-10T07:17:20.932Z,311.89
2019-02-10T07:18:20.881Z,311.91
2019-02-10T07:19:20.899Z,312.24
2019-02-10T07:20:20.863Z,312.42
2019-02-10T07:21:21.169Z,312.21
2019-02-10T07:22:20.904Z,311.83
2019-02-10T07:23:20.818Z,312.36
2019-02-10T07:24:20.812Z,312.17
2019-02-10T07:25:20.805Z,312.12
2019-02-10T07:26:20.786Z,311.91
2019-02-10T07:27:20.809Z,312.00
2019-02-10T07:28:20.788Z,311.79
2019-02-10T07:29:20.763Z,312.22
2019-02-10T07:30:20.765Z,312.21
2019-02-10T07:31:20.809Z,312.42
2019-02-10T07:32:20.722Z,312.08
2019-02-10T07:33:20.731Z,312.30
2019-02-10T07:34:20.689Z,311.77
2019-02-10T07:35:20.693Z,311.74
2019-02-10T07:36:20.687Z,311.99
2019-02-10T07:37:20.672Z,311.53
2019-02-10T07:38:20.686Z,311.96
2019-02-10T07:39:20.656Z,311.68
2019-02-10T07:40:20.654Z,311.50
2019-02-10T07:41:20.662Z,311.71
2019-02-10T07:42:20.620Z,311.78
2019-02-10T07:43:20.657Z,312.04
2019-02-10T07:44:20.594Z,311.92
2019-02-10T07:45:20.584Z,312.32
2019-02-10T07:46:20.569Z,312.15
2019-02-10T07:47:20.550Z,312.03
2019-02-10T07:48:20.554Z,312.07
2019-02-10T07:49:20.555Z,312.23
2019-02-10T07:50:20.527Z,311.54
2019-02-10T07:51:20.522Z,312.05
2019-02-10T07:52:20.513Z,311.99
2019-02-10T07:53:20.499Z,311.29
2019-02-10T07:54:20.512Z,311.90
2019-02-10T07:55:20.473Z,312.01
2019-02-10T07:56:20.471Z,311.61
2019-02-10T07:57:20.454Z,312.67
2019-02-10T07:58:20.441Z,312.48
2019-02-10T07:59:20.431Z,312.03
2019-02-10T08:00:20.434Z,312.03
2019-02-10T08:01:20.475Z,311.24
2019-02-10T08:02:20.396Z,311.39
2019-02-10T08:03:20.382Z,311.24
2019-02-10T08:04:20.384Z,311.87
2019-02-10T08:05:20.390Z,311.23
2019-02-10T08:06:20.416Z,311.81
2019-02-10T08:07:20.337Z,311.79
2019-02-10T08:08:20.319Z,311.91
2019-02-10T08:09:20.314Z,311.92
2019-02-10T08:10:20.309Z,311.77
2019-02-10T08:11:20.299Z,312.30
2019-02-10T08:12:20.304Z,312.75
2019-02-10T08:13:20.271Z,311.80
2019-02-10T08:14:20.270Z,311.91
2019-02-10T08:15:20.261Z,311.76
2019-02-10T08:16:20.275Z,313.02
2019-02-10T08:17:20.259Z,312.65
2019-02-10T08:18:20.221Z,312.29
2019-02-10T08:19:20.213Z,312.92
2019-02-10T08:20:20.190Z,312.62
2019-02-10T08:21:20.223Z,312.75
2019-02-10T08:22:20.177Z,311.77
2019-02-10T08:23:20.182Z,311.90
2019-02-10T08:24:20.162Z,312.25
2019-02-10T08:25:20.151Z,312.52
2019-02-10T08:26:20.133Z,311.91
2019-02-10T08:27:20.134Z,312.19
2019-02-10T08:28:20.124Z,313.03
2019-02-10T08:29:20.114Z,312.78
2019-02-10T08:30:20.093Z,311.69
2019-02-10T08:31:20.076Z,312.59
2019-02-10T08:32:20.089Z,311.70
2019-02-10T08:33:20.063Z,311.83
2019-02-10T08:34:20.050Z,312.26
2019-02-10T08:35:20.038Z,311.87
2019-02-10T08:36:20.018Z,312.26
2019-02-10T08:37:20.030Z,312.27
2019-02-10T08:38:20.006Z,311.69
2019-02-10T08:39:19.990Z,312.44
2019-02-10T08:40:19.999Z,311.95
2019-02-10T08:41:19.981Z,312.69
2019-02-10T08:42:19.952Z,313.06
2019-02-10T08:43:19.968Z,312.99
2019-02-10T08:44:19.961Z,313.48
2019-02-10T08:45:19.927Z,312.84
2019-02-10T08:46:19.914Z,313.24
2019-02-10T08:47:19.902Z,312.71
2019-02-10T08:48:19.886Z,312.74
2019-02-10T08:49:19.901Z,313.36
2019-02-10T08:50:19.900Z,312.92
2019-02-10T08:51:19.858Z,313.47
2019-02-10T08:52:19.884Z,313.60
2019-02-10T08:53:19.862Z,313.75
2019-02-10T08:54:19.825Z,313.54
2019-02-10T08:55:19.812Z,314.33
2019-02-10T08:56:19.797Z,313.97
2019-02-10T08:57:19.816Z,313.84
2019-02-10T08:58:19.787Z,314.75
2019-02-10T08:59:19.776Z,314.18
2019-02-10T09:00:19.763Z,314.22
2019-02-10T09:01:19.745Z,313.90
2019-02-10T09:02:19.787Z,313.96
2019-02-10T09:03:19.995Z,313.86
2019-02-10T09:04:19.718Z,313.91
2019-02-10T09:05:19.714Z,313.75
2019-02-10T09:06:19.688Z,313.33
2019-02-10T09:07:19.678Z,313.49
2019-02-10T09:08:19.702Z,313.47
2019-02-10T09:09:19.694Z,313.34
2019-02-10T09:10:19.653Z,313.72
2019-02-10T09:11:19.649Z,313.45
2019-02-10T09:12:19.706Z,313.59
2019-02-10T09:13:19.625Z,313.54
2019-02-10T09:14:19.598Z,313.68
2019-02-10T09:15:19.613Z,313.77
2019-02-10T09:16:19.591Z,313.59
2019-02-10T09:17:19.582Z,313.63
2019-02-10T09:18:19.557Z,313.80
2019-02-10T09:19:20.601Z,313.67
2019-02-10T09:20:19.536Z,313.42
2019-02-10T09:21:19.553Z,313.20
2019-02-10T09:22:19.522Z,313.66
2019-02-10T09:23:19.517Z,313.40
2019-02-10T09:24:19.557Z,313.68
2019-02-10T09:25:19.493Z,313.46
2019-02-10T09:26:19.480Z,313.31
2019-02-10T09:27:19.462Z,313.58
2019-02-10T09:28:19.457Z,313.41
2019-02-10T09:29:19.439Z,313.72
2019-02-10T09:30:19.466Z,313.77
2019-02-10T09:31:19.419Z,313.88
2019-02-10T09:32:19.413Z,313.54
2019-02-10T09:33:19.393Z,313.11
2019-02-10T09:34:19.393Z,313.61
2019-02-10T09:35:19.384Z,313.77
2019-02-10T09:36:19.390Z,313.73
2019-02-10T09:37:19.360Z,313.53
2019-02-10T09:38:19.345Z,313.46
2019-02-10T09:39:19.326Z,313.51
2019-02-10T09:40:19.318Z,313.14
2019-02-10T09:41:19.335Z,313.68
2019-02-10T09:42:19.309Z,313.70
2019-02-10T09:43:19.302Z,313.45
2019-02-10T09:44:19.284Z,313.53
2019-02-10T09:45:19.269Z,313.72
2019-02-10T09:46:19.260Z,313.45
2019-02-10T09:47:19.260Z,314.02
2019-02-10T09:48:19.236Z,313.69
2019-02-10T09:49:19.237Z,313.77
2019-02-10T09:50:19.220Z,313.44
2019-02-10T09:51:19.200Z,313.24
2019-02-10T09:52:19.222Z,313.44
2019-02-10T09:53:19.188Z,313.53
2019-02-10T09:54:19.176Z,313.39
2019-02-10T09:55:19.166Z,313.24
2019-02-10T09:56:19.158Z,313.55
2019-02-10T09:57:19.144Z,313.84
2019-02-10T09:58:19.147Z,313.27
2019-02-10T09:59:19.114Z,313.21
2019-02-10T10:00:19.099Z,313.30
2019-02-10T10:01:19.086Z,313.20
2019-02-10T10:02:19.111Z,313.09
2019-02-10T10:03:19.073Z,313.02
2019-02-10T10:04:19.053Z,313.32
2019-02-10T10:05:19.053Z,313.57
2019-02-10T10:06:19.038Z,313.41
2019-02-10T10:07:19.044Z,313.80
2019-02-10T10:08:19.021Z,313.44
2019-02-10T10:09:19.799Z,313.37
2019-02-10T10:10:18.994Z,313.27
2019-02-10T10:11:18.998Z,313.22
2019-02-10T10:12:19.002Z,313.15
2019-02-10T10:13:18.955Z,313.23
2019-02-10T10:14:19.788Z,313.21
2019-02-10T10:15:18.944Z,313.14
2019-02-10T10:16:18.937Z,313.35
2019-02-10T10:17:18.920Z,313.11
2019-02-10T10:18:18.944Z,313.41
2019-02-10T10:19:18.887Z,313.54
2019-02-10T10:20:18.894Z,312.98
2019-02-10T10:21:18.879Z,313.22
2019-02-10T10:22:18.863Z,313.27
2019-02-10T10:23:18.881Z,313.50
2019-02-10T10:24:18.838Z,313.63
2019-02-10T10:25:18.832Z,313.95
2019-02-10T10:26:18.822Z,313.70
2019-02-10T10:27:18.822Z,314.11
2019-02-10T10:28:18.821Z,313.76
2019-02-10T10:29:18.786Z,313.88
2019-02-10T10:30:18.773Z,313.92
2019-02-10T10:31:18.758Z,313.65
2019-02-10T10:32:18.748Z,313.87
2019-02-10T10:33:18.760Z,313.47
2019-02-10T10:34:18.741Z,313.63
2019-02-10T10:35:18.733Z,313.96
2019-02-10T10:36:18.709Z,313.51
2019-02-10T10:37:18.706Z,313.65
2019-02-10T10:38:18.729Z,313.42
2019-02-10T10:39:18.682Z,313.60
2019-02-10T10:40:18.676Z,313.55
2019-02-10T10:41:18.662Z,313.25
2019-02-10T10:42:18.648Z,313.67
2019-02-10T10:43:18.649Z,313.52
2019-02-10T10:44:18.632Z,313.33
2019-02-10T10:45:18.606Z,313.93
2019-02-10T10:46:18.603Z,313.52
2019-02-10T10:47:18.595Z,313.56
2019-02-10T10:48:18.609Z,312.89
2019-02-10T10:49:18.571Z,313.64
2019-02-10T10:50:18.553Z,313.52
2019-02-10T10:51:18.542Z,313.84
2019-02-10T10:52:18.564Z,313.29
2019-02-10T10:53:18.561Z,313.42
2019-02-10T10:54:18.515Z,313.84
2019-02-10T10:55:18.501Z,313.38
2019-02-10T10:56:18.493Z,313.59
2019-02-10T10:57:18.479Z,313.54
2019-02-10T10:58:18.497Z,313.64
2019-02-10T10:59:18.503Z,313.28
2019-02-10T11:00:18.457Z,313.67
2019-02-10T11:01:25.227Z,314.05
2019-02-10T11:02:19.422Z,313.46
2019-02-10T11:03:18.433Z,314.19
2019-02-10T11:04:18.412Z,313.80
2019-02-10T11:05:18.386Z,314.09
2019-02-10T11:06:18.407Z,314.01
2019-02-10T11:07:18.372Z,313.73
2019-02-10T11:08:18.375Z,314.10
2019-02-10T11:09:18.347Z,313.66
2019-02-10T11:10:18.354Z,313.82
2019-02-10T11:11:18.328Z,313.81
2019-02-10T11:12:18.362Z,314.12
2019-02-10T11:13:18.337Z,313.92
2019-02-10T11:14:18.297Z,314.02
2019-02-10T11:15:18.288Z,313.62
2019-02-10T11:16:18.271Z,313.63
2019-02-10T11:17:18.254Z,313.70
2019-02-10T11:18:18.301Z,313.81
2019-02-10T11:19:18.260Z,313.70
2019-02-10T11:20:18.239Z,313.98
2019-02-10T11:21:18.224Z,313.85
2019-02-10T11:22:18.227Z,313.86
2019-02-10T11:23:18.194Z,314.07
2019-02-10T11:24:18.224Z,313.74
2019-02-10T11:25:18.213Z,313.59
2019-02-10T11:26:18.177Z,313.58
2019-02-10T11:27:18.145Z,313.61
2019-02-10T11:28:18.140Z,313.45
2019-02-10T11:29:18.126Z,313.56
2019-02-10T11:30:18.116Z,313.52
2019-02-10T11:31:18.129Z,313.44
2019-02-10T11:32:18.106Z,313.72
2019-02-10T11:33:18.088Z,313.29
2019-02-10T11:34:18.069Z,313.32
2019-02-10T11:35:18.087Z,313.54
2019-02-10T11:36:18.050Z,313.22
2019-02-10T11:37:18.067Z,313.33
2019-02-10T11:38:18.040Z,313.02
2019-02-10T11:39:18.027Z,313.45
2019-02-10T11:40:18.020Z,313.60
2019-02-10T11:41:18.025Z,313.53
2019-02-10T11:42:17.991Z,313.42
2019-02-10T11:43:17.989Z,313.07
2019-02-10T11:44:17.967Z,313.36
2019-02-10T11:45:17.957Z,312.84
2019-02-10T11:46:17.968Z,313.04
2019-02-10T11:47:17.925Z,313.39
2019-02-10T11:48:17.935Z,313.96
2019-02-10T11:49:17.914Z,313.52
2019-02-10T11:50:17.901Z,313.35
2019-02-10T11:51:17.914Z,313.23
2019-02-10T11:52:17.892Z,313.14
2019-02-10T11:53:17.915Z,313.33
2019-02-10T11:54:17.869Z,313.33
2019-02-10T11:55:17.848Z,313.17
2019-02-10T11:56:17.845Z,312.98
2019-02-10T11:57:17.828Z,312.98
2019-02-10T11:58:17.849Z,312.77
2019-02-10T11:59:17.809Z,312.48
2019-02-10T12:00:17.789Z,313.24
2019-02-10T12:01:17.777Z,313.02
2019-02-10T12:02:17.788Z,313.25
2019-02-10T12:03:17.761Z,313.13
2019-02-10T12:04:17.778Z,313.16
2019-02-10T12:05:17.741Z,313.01
2019-02-10T12:06:17.750Z,312.92
2019-02-10T12:07:17.706Z,312.48
2019-02-10T12:08:17.701Z,312.99
2019-02-10T12:09:17.689Z,313.02
2019-02-10T12:10:17.685Z,312.92
2019-02-10T12:11:17.679Z,312.86
2019-02-10T12:12:17.681Z,313.26
2019-02-10T12:13:17.643Z,313.68
2019-02-10T12:14:17.655Z,312.97
2019-02-10T12:15:17.633Z,313.27
2019-02-10T12:16:17.654Z,313.24
2019-02-10T12:17:17.612Z,313.43
2019-02-10T12:18:17.583Z,312.83
2019-02-10T12:19:17.582Z,312.99
2019-02-10T12:20:17.597Z,312.97
2019-02-10T12:21:17.594Z,312.92
2019-02-10T12:22:17.553Z,312.94
2019-02-10T12:23:17.541Z,312.86
2019-02-10T12:24:17.554Z,312.81
2019-02-10T12:25:17.520Z,313.02
2019-02-10T12:26:17.494Z,312.51
2019-02-10T12:27:17.524Z,312.86
2019-02-10T12:28:17.501Z,312.81